Fort Worth, TX

12:52 AM CDT on July 24, 2017 (GMT -0500)
Meacham International Airport | | Change Station

Elev 669 ft 32.81 °N, 97.36 °W | Updated 15 seconds ago

Rain
Rain
73.7 °F
Feels Like 72 °F
N
0.0
Wind Variable Wind from West
Gusts 0.0 mph

Today
High -- | Low -- °F
--% Chance of Precip.
Yesterday
High -- | Low -- °F
Precip. -- in
Pressure 30.00 in
Visibility 10.0 miles
Clouds Mostly Cloudy 4800 ft
Overcast 6000 ft
Heat Index 72 °F
Dew Point 71 °F
Humidity 90%
Rainfall 0.18 in
Snow Depth Not available.
6:38 AM 8:33 PM
New Moon, 1% visible
SPECI KFTW 240540Z 05007KT 10SM VCTS BKN048 OVC060 24/23 A3000 RMK AO2 LTG DSNT ALQDS RAE38 TSE0456 P0003 T02390228
Pressure 30.00 in
Visibility 10.0 miles
Clouds Mostly Cloudy 4800 ft
Overcast 6000 ft
Heat Index 72 °F
Dew Point 71 °F
Humidity 90%
Rainfall 0.18 in
Snow Depth Not available.
6:38 AM 8:33 PM
New Moon, 1% visible
SPECI KFTW 240540Z 05007KT 10SM VCTS BKN048 OVC060 24/23 A3000 RMK AO2 LTG DSNT ALQDS RAE38 TSE0456 P0003 T02390228

Get Severe Weather Alerts

Thanks for signing up!

Be on the lookout for a verification email in your inbox.

You'll start receiving the daily forecast at 6 AM.

×

10-Day Weather Forecast

Almanac

Astronomy

Jul. 24, 2017 Rise Set
Actual Time
Civil Twilight
Nautical Twilight
Astronomical Twilight
Moon
Length of Visible Light
Length of Day
Tomorrow will be .
, % of the Moon is Illuminated

Today's Extremes

State Highs State Lows

Community

WunderPhotos

Category 6

Welcome to Category 6. This is the collective home for Weather Underground's featured writeups by Dr. Jeff Masters (right), Bob Henson (left), Chris Burt, and other regular contributors.

Nearby

Air Quality

  Air Quality AQ Index Pollutant
Not available.

Snow Depth

Station Depth Elevation

Earthquake Activity

City Distance Mag. Time & Date
Minimum magnitude displayed is 2.5.

Coastal Water Temperatures

Place Temperature

Stations

Nearby Weather Stations

Station Location Temp. Windchill Dew Point Humidity Wind Precip. Elev Updated Type
                   

Watches & Warnings

There are currently no watches in effect.